Buffalo, Wyoming
Current Conditions -  °F | °C
As of 12:53 PM on Friday 24 Oct 2014 (Local Time) from KBYG Reporting Station
Few Clouds Few Clouds  
Wind Chill: 65°   Ceiling: Unl
Heat Index: 65°   Visibility: 10mi
Dew Point: 28°   Wind: 6mph
Humidity: 25%   Direction: 60°ENE
Pressure: 30.08"   Gusts: NA
Location:  44.35°N, 106.7°W
Report Text: KBYG 241853Z AUTO 06005KT 10SM FEW110 18/M02 A3008 RMK AO2 SLP151 T01831022
Loading
Personal Weather Stations






























Interactive Weather Map
Tropical Storm Tracking
New forecast layout! Learn more

10-Day Weather Forecast

Advertisements
Track Severe Weather on mobile